メインページ
METAR-TAF:

METAR-TAF

空港 :

タシュケント国際空港

タシュケント, ウズベキスタン

緯度: 41-16N, 経度: 069-16E, 海抜: 489m

現時点の気象観測

当レポートは37分前の23:30(UTC)に作成
南東の風 4kt、東/北東からの間で変化する
気温 25°C
湿度 44%
気圧 1001 hPa
視程: 4000m

METAR: UTTT 162330Z 13004KT 070V190 4000 FU NSC 25/12 Q1001 R08R/CLRD70 NOSIG

時間: 05:07 (00:07 UTC)

予報

当レポートは1時間7分前の23:00(UTC)に作成
予報は17日の 00時(UTC)から 17日の 24時(UTC)まで有効
変向風 2kt
視程: 7000m
17日の 00時(UTC)から 17日の 04時(UTC)まで一時的に
の風 10kt

TAF: UTTT 162300Z 1700/1724 VRB02KT 7000 NSC TX39/1710Z TEMPO 1700/1704 09010KT

4,000以上の空港の気象観測と天気予報(METAR報とTAF報)

利用可能な観測所は地図上に黄色い丸と赤い丸で示す。

丸の上にカーソルを重ねると観測所名を参照できる。

次にクリックすると気象観測と天気予報を参照できる。

マップの切り替え:黒色「×」印の緑ボタンをクリックして拡大、「-」印の緑ボタンをクリックして縮小、緑色の三角印をクリックして隣りの地図に切り替え


METAR-TAF: